Terminal Aerodrome Forecast
Issued by NWS Sterling, VA

Home | Current Version | Previous Version | Text Only | Print | Product List | Glossary On
Versions: 1 2 3 4 5 6 7 8 9 10 11 12 13 14 15 16 17 18 19 20 21
797
FTUS41 KLWX 102341 RRA
TAFIAD
TAF
KIAD 102341Z 1100/1206 31006KT P6SM FEW060
     FM110600 00000KT P6SM BKN100
     FM111000 00000KT P6SM OVC050
     FM111500 16006KT P6SM OVC090
     FM120500 19009KT P6SM OVC100=

USA.gov is the U.S. government's official web portal to all federal, state and local government web resources and services.